sensor_id;sensor_type;location;lat;lon;timestamp;pressure;altitude;pressure_sealevel;temperature;humidity
78892;BME280;68368;51.728;5.248;2024-03-17T00:01:34;102336.60;;;5.21;93.50
78892;BME280;68368;51.728;5.248;2024-03-17T00:03:38;102331.80;;;5.20;93.61
78892;BME280;68368;51.728;5.248;2024-03-17T00:05:43;102333.73;;;5.20;93.35
78892;BME280;68368;51.728;5.248;2024-03-17T00:07:47;102330.20;;;5.20;93.10
78892;BME280;68368;51.728;5.248;2024-03-17T00:09:51;102329.65;;;5.18;93.09
78892;BME280;68368;51.728;5.248;2024-03-17T00:11:56;102327.84;;;5.17;92.91
78892;BME280;68368;51.728;5.248;2024-03-17T00:14:00;102326.45;;;5.18;92.68
78892;BME280;68368;51.728;5.248;2024-03-17T00:16:06;102328.23;;;5.18;92.74
78892;BME280;68368;51.728;5.248;2024-03-17T00:18:11;102327.19;;;5.19;92.56
78892;BME280;68368;51.728;5.248;2024-03-17T00:20:15;102324.96;;;5.20;92.12
78892;BME280;68368;51.728;5.248;2024-03-17T00:22:20;102320.27;;;5.22;91.89
78892;BME280;68368;51.728;5.248;2024-03-17T00:24:24;102312.25;;;5.25;91.55
78892;BME280;68368;51.728;5.248;2024-03-17T00:26:29;102306.70;;;5.27;90.87
78892;BME280;68368;51.728;5.248;2024-03-17T00:28:33;102310.42;;;5.28;90.34
78892;BME280;68368;51.728;5.248;2024-03-17T00:30:37;102307.27;;;5.29;90.31
78892;BME280;68368;51.728;5.248;2024-03-17T00:32:42;102311.10;;;5.27;89.82
78892;BME280;68368;51.728;5.248;2024-03-17T00:34:47;102313.84;;;5.25;89.90
78892;BME280;68368;51.728;5.248;2024-03-17T00:36:51;102309.66;;;5.21;89.68
78892;BME280;68368;51.728;5.248;2024-03-17T00:38:56;102314.17;;;5.19;89.84
78892;BME280;68368;51.728;5.248;2024-03-17T00:41:00;102313.61;;;5.18;89.61
78892;BME280;68368;51.728;5.248;2024-03-17T00:43:06;102314.23;;;5.16;89.34
78892;BME280;68368;51.728;5.248;2024-03-17T00:45:12;102314.55;;;5.15;89.32
78892;BME280;68368;51.728;5.248;2024-03-17T00:47:16;102314.33;;;5.14;88.95
78892;BME280;68368;51.728;5.248;2024-03-17T00:49:21;102312.02;;;5.13;88.33
78892;BME280;68368;51.728;5.248;2024-03-17T00:51:25;102312.84;;;5.12;88.28
78892;BME280;68368;51.728;5.248;2024-03-17T00:53:30;102311.09;;;5.12;88.12
78892;BME280;68368;51.728;5.248;2024-03-17T00:55:35;102308.46;;;5.12;87.88
78892;BME280;68368;51.728;5.248;2024-03-17T00:57:39;102303.20;;;5.13;87.90
78892;BME280;68368;51.728;5.248;2024-03-17T00:59:44;102301.48;;;5.14;87.65
78892;BME280;68368;51.728;5.248;2024-03-17T01:01:48;102299.27;;;5.16;87.60
78892;BME280;68368;51.728;5.248;2024-03-17T01:03:53;102296.37;;;5.18;87.74
78892;BME280;68368;51.728;5.248;2024-03-17T01:05:57;102297.63;;;5.19;87.76
78892;BME280;68368;51.728;5.248;2024-03-17T01:08:02;102298.37;;;5.20;87.77
78892;BME280;68368;51.728;5.248;2024-03-17T01:10:08;102298.56;;;5.21;88.02
78892;BME280;68368;51.728;5.248;2024-03-17T01:12:13;102300.86;;;5.21;87.90
78892;BME280;68368;51.728;5.248;2024-03-17T01:14:17;102297.34;;;5.21;87.71
78892;BME280;68368;51.728;5.248;2024-03-17T01:16:22;102289.27;;;5.22;87.97
78892;BME280;68368;51.728;5.248;2024-03-17T01:18:27;102285.23;;;5.22;88.24
78892;BME280;68368;51.728;5.248;2024-03-17T01:20:31;102280.13;;;5.22;88.27
78892;BME280;68368;51.728;5.248;2024-03-17T01:22:36;102274.69;;;5.23;88.31
78892;BME280;68368;51.728;5.248;2024-03-17T01:24:41;102269.27;;;5.24;88.47
78892;BME280;68368;51.728;5.248;2024-03-17T01:26:45;102268.39;;;5.24;88.43
78892;BME280;68368;51.728;5.248;2024-03-17T01:28:50;102262.02;;;5.23;88.48
78892;BME280;68368;51.728;5.248;2024-03-17T01:30:54;102264.63;;;5.22;88.79
78892;BME280;68368;51.728;5.248;2024-03-17T01:32:59;102259.68;;;5.21;89.00
78892;BME280;68368;51.728;5.248;2024-03-17T01:35:04;102257.88;;;5.20;88.97
78892;BME280;68368;51.728;5.248;2024-03-17T01:37:09;102254.13;;;5.19;89.17
78892;BME280;68368;51.728;5.248;2024-03-17T01:39:13;102254.09;;;5.18;89.16
78892;BME280;68368;51.728;5.248;2024-03-17T01:41:18;102249.46;;;5.16;89.27
78892;BME280;68368;51.728;5.248;2024-03-17T01:43:22;102254.32;;;5.14;89.76
78892;BME280;68368;51.728;5.248;2024-03-17T01:45:32;102254.83;;;5.14;89.59
78892;BME280;68368;51.728;5.248;2024-03-17T01:47:37;102253.05;;;5.13;90.14
78892;BME280;68368;51.728;5.248;2024-03-17T01:49:41;102250.38;;;5.12;90.24
78892;BME280;68368;51.728;5.248;2024-03-17T01:51:47;102252.50;;;5.12;90.14
78892;BME280;68368;51.728;5.248;2024-03-17T01:53:52;102252.11;;;5.12;90.21
78892;BME280;68368;51.728;5.248;2024-03-17T01:55:58;102246.15;;;5.12;90.58
78892;BME280;68368;51.728;5.248;2024-03-17T01:58:04;102241.97;;;5.13;90.61
78892;BME280;68368;51.728;5.248;2024-03-17T02:00:11;102243.46;;;5.16;90.82
78892;BME280;68368;51.728;5.248;2024-03-17T02:02:15;102240.90;;;5.18;90.76
78892;BME280;68368;51.728;5.248;2024-03-17T02:04:20;102239.42;;;5.21;90.73
78892;BME280;68368;51.728;5.248;2024-03-17T02:06:25;102241.15;;;5.26;90.79
78892;BME280;68368;51.728;5.248;2024-03-17T02:08:31;102236.89;;;5.30;90.62
78892;BME280;68368;51.728;5.248;2024-03-17T02:10:53;102235.50;;;5.35;90.67
78892;BME280;68368;51.728;5.248;2024-03-17T02:12:58;102235.48;;;5.40;90.74
78892;BME280;68368;51.728;5.248;2024-03-17T02:15:04;102230.33;;;5.44;90.94
78892;BME280;68368;51.728;5.248;2024-03-17T02:17:08;102223.97;;;5.48;91.00
78892;BME280;68368;51.728;5.248;2024-03-17T02:19:13;102223.40;;;5.53;90.87
78892;BME280;68368;51.728;5.248;2024-03-17T02:21:17;102218.45;;;5.58;90.65
78892;BME280;68368;51.728;5.248;2024-03-17T02:23:22;102221.09;;;5.62;90.69
78892;BME280;68368;51.728;5.248;2024-03-17T02:25:26;102220.34;;;5.67;90.57
78892;BME280;68368;51.728;5.248;2024-03-17T02:27:31;102221.04;;;5.72;90.53
78892;BME280;68368;51.728;5.248;2024-03-17T02:29:35;102217.99;;;5.76;90.42
78892;BME280;68368;51.728;5.248;2024-03-17T02:31:40;102216.15;;;5.79;90.44
78892;BME280;68368;51.728;5.248;2024-03-17T02:33:45;102218.73;;;5.83;90.58
78892;BME280;68368;51.728;5.248;2024-03-17T02:35:50;102218.14;;;5.86;90.50
78892;BME280;68368;51.728;5.248;2024-03-17T02:37:54;102220.89;;;5.90;90.45
78892;BME280;68368;51.728;5.248;2024-03-17T02:39:59;102218.92;;;5.94;90.11
78892;BME280;68368;51.728;5.248;2024-03-17T02:42:06;102218.31;;;5.97;90.20
78892;BME280;68368;51.728;5.248;2024-03-17T02:44:10;102218.21;;;5.99;90.36
78892;BME280;68368;51.728;5.248;2024-03-17T02:46:16;102210.68;;;6.01;90.26
78892;BME280;68368;51.728;5.248;2024-03-17T02:48:21;102209.71;;;6.04;90.05
78892;BME280;68368;51.728;5.248;2024-03-17T02:50:25;102206.45;;;6.06;90.13
78892;BME280;68368;51.728;5.248;2024-03-17T02:52:29;102206.52;;;6.08;90.12
78892;BME280;68368;51.728;5.248;2024-03-17T02:54:34;102207.48;;;6.11;89.75
78892;BME280;68368;51.728;5.248;2024-03-17T02:56:38;102202.27;;;6.14;89.55
78892;BME280;68368;51.728;5.248;2024-03-17T02:58:44;102200.73;;;6.16;89.63
78892;BME280;68368;51.728;5.248;2024-03-17T03:00:48;102199.21;;;6.18;89.38
78892;BME280;68368;51.728;5.248;2024-03-17T03:02:53;102198.91;;;6.20;89.22
78892;BME280;68368;51.728;5.248;2024-03-17T03:04:57;102203.54;;;6.21;89.36
78892;BME280;68368;51.728;5.248;2024-03-17T03:07:02;102204.63;;;6.22;89.20
78892;BME280;68368;51.728;5.248;2024-03-17T03:09:06;102206.25;;;6.23;89.58
78892;BME280;68368;51.728;5.248;2024-03-17T03:11:13;102200.80;;;6.24;89.43
78892;BME280;68368;51.728;5.248;2024-03-17T03:13:17;102204.88;;;6.25;89.10
78892;BME280;68368;51.728;5.248;2024-03-17T03:15:21;102199.44;;;6.26;89.07
78892;BME280;68368;51.728;5.248;2024-03-17T03:17:26;102203.16;;;6.26;88.83
78892;BME280;68368;51.728;5.248;2024-03-17T03:19:31;102192.05;;;6.26;89.06
78892;BME280;68368;51.728;5.248;2024-03-17T03:21:36;102192.61;;;6.27;89.14
78892;BME280;68368;51.728;5.248;2024-03-17T03:23:40;102191.18;;;6.27;88.92
78892;BME280;68368;51.728;5.248;2024-03-17T03:25:45;102189.94;;;6.26;88.70
78892;BME280;68368;51.728;5.248;2024-03-17T03:27:50;102191.87;;;6.26;88.81
78892;BME280;68368;51.728;5.248;2024-03-17T03:29:54;102189.19;;;6.25;88.84
78892;BME280;68368;51.728;5.248;2024-03-17T03:31:59;102188.52;;;6.26;89.01
78892;BME280;68368;51.728;5.248;2024-03-17T03:34:03;102185.89;;;6.27;89.16
78892;BME280;68368;51.728;5.248;2024-03-17T03:36:13;102187.11;;;6.26;89.12
78892;BME280;68368;51.728;5.248;2024-03-17T03:38:18;102181.81;;;6.26;88.94
78892;BME280;68368;51.728;5.248;2024-03-17T03:40:23;102186.55;;;6.25;89.12
78892;BME280;68368;51.728;5.248;2024-03-17T03:42:27;102183.39;;;6.26;89.10
78892;BME280;68368;51.728;5.248;2024-03-17T03:44:32;102179.00;;;6.26;88.98
78892;BME280;68368;51.728;5.248;2024-03-17T03:46:36;102178.31;;;6.27;88.98
78892;BME280;68368;51.728;5.248;2024-03-17T03:48:41;102174.13;;;6.28;89.04
78892;BME280;68368;51.728;5.248;2024-03-17T03:50:45;102163.75;;;6.29;88.93
78892;BME280;68368;51.728;5.248;2024-03-17T03:52:50;102151.59;;;6.30;88.71
78892;BME280;68368;51.728;5.248;2024-03-17T03:54:55;102151.24;;;6.30;88.42
78892;BME280;68368;51.728;5.248;2024-03-17T03:56:59;102153.02;;;6.30;88.60
78892;BME280;68368;51.728;5.248;2024-03-17T03:59:04;102154.23;;;6.29;88.57
78892;BME280;68368;51.728;5.248;2024-03-17T04:01:09;102147.80;;;6.27;88.66
78892;BME280;68368;51.728;5.248;2024-03-17T04:03:14;102141.36;;;6.24;88.67
78892;BME280;68368;51.728;5.248;2024-03-17T04:05:19;102138.27;;;6.20;88.85
78892;BME280;68368;51.728;5.248;2024-03-17T04:07:23;102138.66;;;6.16;88.91
78892;BME280;68368;51.728;5.248;2024-03-17T04:09:28;102135.33;;;6.09;89.29
78892;BME280;68368;51.728;5.248;2024-03-17T04:11:33;102134.08;;;6.03;89.48
78892;BME280;68368;51.728;5.248;2024-03-17T04:13:38;102130.04;;;5.98;89.99
78892;BME280;68368;51.728;5.248;2024-03-17T04:15:42;102128.59;;;5.92;90.29
78892;BME280;68368;51.728;5.248;2024-03-17T04:17:47;102129.84;;;5.86;90.98
78892;BME280;68368;51.728;5.248;2024-03-17T04:19:51;102128.45;;;5.81;90.79
78892;BME280;68368;51.728;5.248;2024-03-17T04:21:56;102128.31;;;5.77;90.86
78892;BME280;68368;51.728;5.248;2024-03-17T04:24:01;102123.25;;;5.72;91.22
78892;BME280;68368;51.728;5.248;2024-03-17T04:26:06;102121.70;;;5.67;91.48
78892;BME280;68368;51.728;5.248;2024-03-17T04:28:11;102121.23;;;5.64;91.73
78892;BME280;68368;51.728;5.248;2024-03-17T04:30:15;102127.27;;;5.60;91.76
78892;BME280;68368;51.728;5.248;2024-03-17T04:32:20;102124.67;;;5.56;91.94
78892;BME280;68368;51.728;5.248;2024-03-17T04:34:24;102125.63;;;5.52;92.25
78892;BME280;68368;51.728;5.248;2024-03-17T04:36:29;102129.77;;;5.50;92.41
78892;BME280;68368;51.728;5.248;2024-03-17T04:38:33;102124.38;;;5.47;92.76
78892;BME280;68368;51.728;5.248;2024-03-17T04:40:41;102124.14;;;5.44;92.53
78892;BME280;68368;51.728;5.248;2024-03-17T04:42:45;102129.58;;;5.43;92.91
78892;BME280;68368;51.728;5.248;2024-03-17T04:44:50;102130.27;;;5.43;92.72
78892;BME280;68368;51.728;5.248;2024-03-17T04:46:55;102124.75;;;5.41;92.95
78892;BME280;68368;51.728;5.248;2024-03-17T04:48:59;102124.05;;;5.41;93.13
78892;BME280;68368;51.728;5.248;2024-03-17T04:51:05;102125.98;;;5.40;93.01
78892;BME280;68368;51.728;5.248;2024-03-17T04:53:09;102120.66;;;5.40;93.06
78892;BME280;68368;51.728;5.248;2024-03-17T04:55:14;102125.77;;;5.40;93.20
78892;BME280;68368;51.728;5.248;2024-03-17T04:57:18;102123.86;;;5.41;93.22
78892;BME280;68368;51.728;5.248;2024-03-17T04:59:22;102121.92;;;5.41;93.36
78892;BME280;68368;51.728;5.248;2024-03-17T05:01:27;102119.35;;;5.43;93.32
78892;BME280;68368;51.728;5.248;2024-03-17T05:03:31;102115.71;;;5.45;93.64
78892;BME280;68368;51.728;5.248;2024-03-17T05:05:36;102118.08;;;5.47;93.52
78892;BME280;68368;51.728;5.248;2024-03-17T05:07:41;102114.92;;;5.47;93.36
78892;BME280;68368;51.728;5.248;2024-03-17T05:09:45;102112.48;;;5.49;93.51
78892;BME280;68368;51.728;5.248;2024-03-17T05:11:51;102108.80;;;5.49;93.47
78892;BME280;68368;51.728;5.248;2024-03-17T05:13:55;102110.10;;;5.51;93.98
78892;BME280;68368;51.728;5.248;2024-03-17T05:16:01;102110.70;;;5.53;94.12
78892;BME280;68368;51.728;5.248;2024-03-17T05:18:06;102109.50;;;5.55;94.17
78892;BME280;68368;51.728;5.248;2024-03-17T05:20:12;102110.98;;;5.56;94.24
78892;BME280;68368;51.728;5.248;2024-03-17T05:22:16;102115.58;;;5.57;94.45
78892;BME280;68368;51.728;5.248;2024-03-17T05:24:21;102119.84;;;5.59;94.42
78892;BME280;68368;51.728;5.248;2024-03-17T05:26:25;102122.35;;;5.60;94.48
78892;BME280;68368;51.728;5.248;2024-03-17T05:28:30;102119.92;;;5.61;94.51
78892;BME280;68368;51.728;5.248;2024-03-17T05:30:37;102117.44;;;5.61;94.40
78892;BME280;68368;51.728;5.248;2024-03-17T05:32:41;102114.59;;;5.60;94.15
78892;BME280;68368;51.728;5.248;2024-03-17T05:34:46;102115.24;;;5.58;94.31
78892;BME280;68368;51.728;5.248;2024-03-17T05:36:50;102105.02;;;5.58;94.53
78892;BME280;68368;51.728;5.248;2024-03-17T05:38:54;102100.59;;;5.57;94.38
78892;BME280;68368;51.728;5.248;2024-03-17T05:41:00;102095.84;;;5.58;94.40
78892;BME280;68368;51.728;5.248;2024-03-17T05:43:05;102101.14;;;5.58;94.19
78892;BME280;68368;51.728;5.248;2024-03-17T05:45:10;102095.35;;;5.58;94.39
78892;BME280;68368;51.728;5.248;2024-03-17T05:47:15;102092.56;;;5.59;94.32
78892;BME280;68368;51.728;5.248;2024-03-17T05:49:19;102092.40;;;5.60;94.22
78892;BME280;68368;51.728;5.248;2024-03-17T05:51:24;102092.89;;;5.59;94.53
78892;BME280;68368;51.728;5.248;2024-03-17T05:53:28;102096.20;;;5.58;94.81
78892;BME280;68368;51.728;5.248;2024-03-17T05:55:36;102094.96;;;5.58;94.98
78892;BME280;68368;51.728;5.248;2024-03-17T05:57:40;102099.21;;;5.58;94.78
78892;BME280;68368;51.728;5.248;2024-03-17T05:59:45;102114.19;;;5.58;94.72
78892;BME280;68368;51.728;5.248;2024-03-17T06:01:49;102120.03;;;5.59;95.05
78892;BME280;68368;51.728;5.248;2024-03-17T06:03:54;102121.08;;;5.59;94.93
78892;BME280;68368;51.728;5.248;2024-03-17T06:05:59;102112.60;;;5.58;94.68
78892;BME280;68368;51.728;5.248;2024-03-17T06:08:05;102108.36;;;5.58;94.75
78892;BME280;68368;51.728;5.248;2024-03-17T06:10:11;102115.44;;;5.58;94.60
78892;BME280;68368;51.728;5.248;2024-03-17T06:12:16;102119.58;;;5.61;94.70
78892;BME280;68368;51.728;5.248;2024-03-17T06:14:20;102123.39;;;5.65;94.64
78892;BME280;68368;51.728;5.248;2024-03-17T06:16:24;102122.00;;;5.72;94.74
78892;BME280;68368;51.728;5.248;2024-03-17T06:18:29;102118.91;;;5.81;94.37
78892;BME280;68368;51.728;5.248;2024-03-17T06:20:33;102121.50;;;5.90;94.12
78892;BME280;68368;51.728;5.248;2024-03-17T06:22:38;102115.89;;;6.02;93.91
78892;BME280;68368;51.728;5.248;2024-03-17T06:24:43;102110.44;;;6.15;93.58
78892;BME280;68368;51.728;5.248;2024-03-17T06:26:59;102115.23;;;6.48;93.22
78892;BME280;68368;51.728;5.248;2024-03-17T06:29:03;102118.59;;;7.10;91.83
78892;BME280;68368;51.728;5.248;2024-03-17T06:31:09;102116.40;;;7.43;90.16
78892;BME280;68368;51.728;5.248;2024-03-17T06:33:16;102112.03;;;7.69;88.66
78892;BME280;68368;51.728;5.248;2024-03-17T06:35:21;102112.72;;;7.68;87.86
78892;BME280;68368;51.728;5.248;2024-03-17T06:37:25;102112.98;;;7.63;87.28
78892;BME280;68368;51.728;5.248;2024-03-17T06:39:30;102114.06;;;7.57;87.00
78892;BME280;68368;51.728;5.248;2024-03-17T06:41:34;102113.94;;;7.52;86.91
78892;BME280;68368;51.728;5.248;2024-03-17T06:43:39;102114.38;;;7.48;86.64
78892;BME280;68368;51.728;5.248;2024-03-17T06:45:43;102117.05;;;7.48;86.82
78892;BME280;68368;51.728;5.248;2024-03-17T06:47:48;102105.75;;;7.57;86.58
78892;BME280;68368;51.728;5.248;2024-03-17T06:49:52;102107.83;;;7.78;86.01
78892;BME280;68368;51.728;5.248;2024-03-17T06:51:56;102104.12;;;8.39;84.96
78892;BME280;68368;51.728;5.248;2024-03-17T06:54:01;102105.96;;;8.91;82.63
78892;BME280;68368;51.728;5.248;2024-03-17T06:56:06;102102.23;;;9.00;81.48
78892;BME280;68368;51.728;5.248;2024-03-17T06:58:11;102101.59;;;8.83;80.47
78892;BME280;68368;51.728;5.248;2024-03-17T07:00:17;102096.61;;;8.72;80.31
78892;BME280;68368;51.728;5.248;2024-03-17T07:02:22;102097.17;;;8.63;80.45
78892;BME280;68368;51.728;5.248;2024-03-17T07:04:26;102100.28;;;8.59;80.90
78892;BME280;68368;51.728;5.248;2024-03-17T07:06:30;102099.80;;;8.62;81.52
78892;BME280;68368;51.728;5.248;2024-03-17T07:08:35;102097.02;;;8.65;81.52
78892;BME280;68368;51.728;5.248;2024-03-17T07:10:39;102095.96;;;8.65;80.74
78892;BME280;68368;51.728;5.248;2024-03-17T07:12:44;102095.61;;;8.65;80.77
78892;BME280;68368;51.728;5.248;2024-03-17T07:14:51;102095.64;;;8.67;80.55
78892;BME280;68368;51.728;5.248;2024-03-17T07:16:57;102096.73;;;8.68;80.50
78892;BME280;68368;51.728;5.248;2024-03-17T07:19:02;102092.27;;;8.67;80.44
78892;BME280;68368;51.728;5.248;2024-03-17T07:21:07;102088.44;;;8.61;80.38
78892;BME280;68368;51.728;5.248;2024-03-17T07:23:11;102090.67;;;8.56;81.05
78892;BME280;68368;51.728;5.248;2024-03-17T07:25:16;102091.16;;;8.54;81.58
78892;BME280;68368;51.728;5.248;2024-03-17T07:27:22;102093.45;;;8.53;81.91
78892;BME280;68368;51.728;5.248;2024-03-17T07:29:26;102089.52;;;8.52;82.42
78892;BME280;68368;51.728;5.248;2024-03-17T07:31:31;102093.59;;;8.52;82.18
78892;BME280;68368;51.728;5.248;2024-03-17T07:33:35;102093.41;;;8.51;82.22
78892;BME280;68368;51.728;5.248;2024-03-17T07:35:49;102090.88;;;8.49;81.79
78892;BME280;68368;51.728;5.248;2024-03-17T07:37:53;102095.42;;;8.46;81.79
78892;BME280;68368;51.728;5.248;2024-03-17T07:39:58;102094.76;;;8.47;82.05
78892;BME280;68368;51.728;5.248;2024-03-17T07:42:03;102091.65;;;8.52;82.04
78892;BME280;68368;51.728;5.248;2024-03-17T07:44:08;102094.45;;;8.59;81.89
78892;BME280;68368;51.728;5.248;2024-03-17T07:46:13;102093.92;;;8.70;81.81
78892;BME280;68368;51.728;5.248;2024-03-17T07:48:17;102090.09;;;8.84;81.39
78892;BME280;68368;51.728;5.248;2024-03-17T07:50:22;102084.35;;;9.00;81.38
78892;BME280;68368;51.728;5.248;2024-03-17T07:52:27;102080.86;;;9.14;80.62
78892;BME280;68368;51.728;5.248;2024-03-17T07:54:31;102081.41;;;9.28;80.08
78892;BME280;68368;51.728;5.248;2024-03-17T07:56:36;102084.25;;;9.41;79.81
78892;BME280;68368;51.728;5.248;2024-03-17T07:58:41;102078.39;;;9.50;79.11
78892;BME280;68368;51.728;5.248;2024-03-17T08:00:46;102079.06;;;9.61;78.47
78892;BME280;68368;51.728;5.248;2024-03-17T08:02:50;102081.83;;;9.70;77.93
78892;BME280;68368;51.728;5.248;2024-03-17T08:04:55;102084.98;;;9.80;78.55
78892;BME280;68368;51.728;5.248;2024-03-17T08:07:00;102080.45;;;9.86;77.94
78892;BME280;68368;51.728;5.248;2024-03-17T08:09:04;102080.86;;;9.91;77.21
78892;BME280;68368;51.728;5.248;2024-03-17T08:11:09;102081.80;;;9.94;77.25
78892;BME280;68368;51.728;5.248;2024-03-17T08:13:13;102088.41;;;9.98;77.74
78892;BME280;68368;51.728;5.248;2024-03-17T08:15:18;102087.39;;;10.01;77.49
78892;BME280;68368;51.728;5.248;2024-03-17T08:17:23;102084.54;;;10.00;76.84
78892;BME280;68368;51.728;5.248;2024-03-17T08:19:27;102091.44;;;9.99;77.07
78892;BME280;68368;51.728;5.248;2024-03-17T08:21:32;102092.86;;;10.00;77.07
78892;BME280;68368;51.728;5.248;2024-03-17T08:23:37;102094.49;;;10.02;77.49
78892;BME280;68368;51.728;5.248;2024-03-17T08:25:41;102098.79;;;10.04;77.43
78892;BME280;68368;51.728;5.248;2024-03-17T08:27:46;102101.80;;;10.05;77.20
78892;BME280;68368;51.728;5.248;2024-03-17T08:29:50;102099.31;;;10.05;77.06
78892;BME280;68368;51.728;5.248;2024-03-17T08:31:55;102099.67;;;10.04;76.94
78892;BME280;68368;51.728;5.248;2024-03-17T08:34:00;102096.84;;;10.05;76.92
78892;BME280;68368;51.728;5.248;2024-03-17T08:36:07;102096.34;;;10.08;77.12
78892;BME280;68368;51.728;5.248;2024-03-17T08:38:11;102099.21;;;10.11;76.68
78892;BME280;68368;51.728;5.248;2024-03-17T08:40:16;102095.53;;;10.15;76.89
78892;BME280;68368;51.728;5.248;2024-03-17T08:42:20;102091.03;;;10.24;77.03
78892;BME280;68368;51.728;5.248;2024-03-17T08:44:25;102085.98;;;10.31;76.07
78892;BME280;68368;51.728;5.248;2024-03-17T08:46:29;102083.20;;;10.35;75.50
78892;BME280;68368;51.728;5.248;2024-03-17T08:48:36;102082.39;;;10.42;75.55
78892;BME280;68368;51.728;5.248;2024-03-17T08:50:41;102080.15;;;10.49;75.04
78892;BME280;68368;51.728;5.248;2024-03-17T08:52:46;102086.76;;;10.54;74.85
78892;BME280;68368;51.728;5.248;2024-03-17T08:54:50;102081.49;;;10.60;75.12
78892;BME280;68368;51.728;5.248;2024-03-17T08:56:55;102085.08;;;10.64;74.93
78892;BME280;68368;51.728;5.248;2024-03-17T08:58:59;102086.70;;;10.65;75.02
78892;BME280;68368;51.728;5.248;2024-03-17T09:01:07;102086.71;;;10.68;75.03
78892;BME280;68368;51.728;5.248;2024-03-17T09:03:12;102080.85;;;10.67;74.57
78892;BME280;68368;51.728;5.248;2024-03-17T09:05:17;102077.46;;;10.64;74.99
78892;BME280;68368;51.728;5.248;2024-03-17T09:07:21;102074.08;;;10.63;75.37
78892;BME280;68368;51.728;5.248;2024-03-17T09:09:26;102075.33;;;10.64;75.54
78892;BME280;68368;51.728;5.248;2024-03-17T09:11:33;102075.90;;;10.68;75.90
78892;BME280;68368;51.728;5.248;2024-03-17T09:13:38;102074.69;;;10.72;75.77
78892;BME280;68368;51.728;5.248;2024-03-17T09:15:50;102075.24;;;10.75;75.48
78892;BME280;68368;51.728;5.248;2024-03-17T09:17:54;102079.73;;;10.79;75.81
78892;BME280;68368;51.728;5.248;2024-03-17T09:19:58;102077.65;;;10.85;75.44
78892;BME280;68368;51.728;5.248;2024-03-17T09:22:03;102077.17;;;10.91;75.29
78892;BME280;68368;51.728;5.248;2024-03-17T09:24:09;102069.23;;;10.98;75.24
78892;BME280;68368;51.728;5.248;2024-03-17T09:26:13;102071.61;;;11.08;74.86
78892;BME280;68368;51.728;5.248;2024-03-17T09:28:18;102066.71;;;11.17;74.16
78892;BME280;68368;51.728;5.248;2024-03-17T09:30:22;102062.70;;;11.29;73.93
78892;BME280;68368;51.728;5.248;2024-03-17T09:32:27;102056.34;;;11.38;73.12
78892;BME280;68368;51.728;5.248;2024-03-17T09:34:31;102051.43;;;11.47;73.29
78892;BME280;68368;51.728;5.248;2024-03-17T09:36:36;102048.65;;;11.61;73.65
78892;BME280;68368;51.728;5.248;2024-03-17T09:38:40;102046.42;;;11.75;73.62
78892;BME280;68368;51.728;5.248;2024-03-17T09:40:49;102044.71;;;11.89;73.40
78892;BME280;68368;51.728;5.248;2024-03-17T09:42:54;102043.00;;;12.04;73.31
78892;BME280;68368;51.728;5.248;2024-03-17T09:44:59;102042.49;;;12.14;72.52
78892;BME280;68368;51.728;5.248;2024-03-17T09:47:06;102040.91;;;12.25;72.45
78892;BME280;68368;51.728;5.248;2024-03-17T09:49:17;102037.73;;;12.38;72.52
78892;BME280;68368;51.728;5.248;2024-03-17T09:51:24;102039.17;;;12.52;71.50
78892;BME280;68368;51.728;5.248;2024-03-17T09:53:30;102040.27;;;12.68;71.77
78892;BME280;68368;51.728;5.248;2024-03-17T09:55:35;102037.41;;;12.90;70.73
78892;BME280;68368;51.728;5.248;2024-03-17T09:57:41;102037.92;;;13.13;69.39
78892;BME280;68368;51.728;5.248;2024-03-17T09:59:52;102036.48;;;13.34;68.58
78892;BME280;68368;51.728;5.248;2024-03-17T10:01:57;102038.20;;;13.61;67.92
78892;BME280;68368;51.728;5.248;2024-03-17T10:04:02;102037.70;;;13.96;67.43
78892;BME280;68368;51.728;5.248;2024-03-17T10:06:07;102038.98;;;14.24;66.74
78892;BME280;68368;51.728;5.248;2024-03-17T10:08:22;102040.36;;;14.60;66.00
78892;BME280;68368;51.728;5.248;2024-03-17T10:10:27;102035.33;;;15.07;64.40
78892;BME280;68368;51.728;5.248;2024-03-17T10:12:32;102028.24;;;15.52;62.85
78892;BME280;68368;51.728;5.248;2024-03-17T10:14:36;102030.41;;;15.95;61.26
78892;BME280;68368;51.728;5.248;2024-03-17T10:16:41;102028.34;;;16.28;61.10
78892;BME280;68368;51.728;5.248;2024-03-17T10:18:45;102031.13;;;16.57;58.10
78892;BME280;68368;51.728;5.248;2024-03-17T10:20:50;102029.92;;;16.89;58.53
78892;BME280;68368;51.728;5.248;2024-03-17T10:23:05;102027.39;;;17.20;56.45
78892;BME280;68368;51.728;5.248;2024-03-17T10:25:11;102021.09;;;17.39;55.65
78892;BME280;68368;51.728;5.248;2024-03-17T10:27:15;102019.02;;;17.53;55.56
78892;BME280;68368;51.728;5.248;2024-03-17T10:29:28;102026.22;;;17.61;54.74
78892;BME280;68368;51.728;5.248;2024-03-17T10:31:33;102024.60;;;17.70;55.82
78892;BME280;68368;51.728;5.248;2024-03-17T10:33:42;102020.33;;;17.78;55.21
78892;BME280;68368;51.728;5.248;2024-03-17T10:35:47;102017.39;;;17.81;54.58
78892;BME280;68368;51.728;5.248;2024-03-17T10:37:58;102011.05;;;17.75;54.05
78892;BME280;68368;51.728;5.248;2024-03-17T10:40:05;102010.83;;;17.68;54.42
78892;BME280;68368;51.728;5.248;2024-03-17T10:42:13;102012.44;;;17.68;54.93
78892;BME280;68368;51.728;5.248;2024-03-17T10:44:17;102010.87;;;17.74;55.51
78892;BME280;68368;51.728;5.248;2024-03-17T10:46:22;102014.88;;;17.81;55.27
78892;BME280;68368;51.728;5.248;2024-03-17T10:48:32;102012.20;;;17.88;55.21
78892;BME280;68368;51.728;5.248;2024-03-17T10:50:39;102006.09;;;17.90;54.47
78892;BME280;68368;51.728;5.248;2024-03-17T10:52:46;102004.85;;;17.88;54.20
78892;BME280;68368;51.728;5.248;2024-03-17T10:54:50;102007.25;;;17.85;54.86
78892;BME280;68368;51.728;5.248;2024-03-17T10:57:01;102010.55;;;17.90;55.59
78892;BME280;68368;51.728;5.248;2024-03-17T10:59:09;102010.81;;;17.95;55.89
78892;BME280;68368;51.728;5.248;2024-03-17T11:01:15;102008.67;;;18.02;55.83